createdAt,value
2019-03-26T00:01:06.455Z,4.10
2019-03-26T00:03:34.731Z,4.16
2019-03-26T00:06:02.987Z,4.18
2019-03-26T00:08:31.268Z,4.27
2019-03-26T00:10:59.528Z,4.25
2019-03-26T00:13:27.805Z,4.16
2019-03-26T00:15:56.058Z,4.05
2019-03-26T00:18:25.659Z,4.12
2019-03-26T00:20:53.941Z,4.17
2019-03-26T00:23:22.195Z,4.11
2019-03-26T00:25:50.473Z,4.11
2019-03-26T00:28:18.726Z,3.98
2019-03-26T00:30:47.674Z,4.01
2019-03-26T00:33:17.272Z,3.99
2019-03-26T00:35:46.118Z,3.93
2019-03-26T00:38:14.375Z,3.89
2019-03-26T00:40:42.652Z,3.93
2019-03-26T00:43:10.909Z,3.91
2019-03-26T00:45:39.181Z,3.78
2019-03-26T00:48:08.209Z,3.83
2019-03-26T00:50:36.482Z,3.76
2019-03-26T00:53:04.742Z,3.76
2019-03-26T00:55:33.586Z,3.78
2019-03-26T00:58:01.981Z,3.85
2019-03-26T01:00:37.451Z,3.84
2019-03-26T01:03:05.975Z,3.82
2019-03-26T01:05:34.251Z,3.78
2019-03-26T01:08:03.847Z,3.76
2019-03-26T01:10:32.894Z,3.81
2019-03-26T01:13:01.924Z,3.87
2019-03-26T01:15:30.768Z,3.75
2019-03-26T01:17:59.025Z,3.76
2019-03-26T01:20:27.299Z,3.85
2019-03-26T01:22:55.554Z,3.81
2019-03-26T01:25:24.607Z,3.84
2019-03-26T01:27:52.863Z,3.79
2019-03-26T01:30:21.910Z,3.76
2019-03-26T01:32:50.934Z,3.79
2019-03-26T01:35:19.787Z,3.68
2019-03-26T01:37:48.044Z,3.70
2019-03-26T01:40:16.325Z,3.71
2019-03-26T01:42:45.141Z,3.68
2019-03-26T01:45:13.418Z,3.63
2019-03-26T01:47:41.678Z,3.67
2019-03-26T01:50:09.956Z,3.72
2019-03-26T01:52:38.778Z,3.73
2019-03-26T01:55:07.062Z,3.61
2019-03-26T01:57:36.158Z,3.56
2019-03-26T02:00:06.182Z,3.56
2019-03-26T02:02:34.437Z,3.58
2019-03-26T02:05:06.467Z,3.60
2019-03-26T02:07:34.711Z,3.64
2019-03-26T02:10:02.982Z,3.53
2019-03-26T02:12:31.233Z,3.49
2019-03-26T02:15:00.149Z,3.50
2019-03-26T02:17:28.599Z,3.48
2019-03-26T02:19:57.448Z,3.43
2019-03-26T02:22:25.699Z,3.41
2019-03-26T02:24:53.968Z,3.39
2019-03-26T02:27:22.223Z,3.38
2019-03-26T02:29:51.068Z,3.35
2019-03-26T02:32:19.318Z,3.30
2019-03-26T02:34:47.594Z,3.32
2019-03-26T02:37:15.840Z,3.25
2019-03-26T02:39:44.117Z,3.25
2019-03-26T02:42:12.365Z,3.21
2019-03-26T02:44:40.652Z,3.15
2019-03-26T02:47:08.901Z,3.18
2019-03-26T02:49:37.170Z,3.18
2019-03-26T02:52:06.294Z,3.23
2019-03-26T02:54:34.560Z,3.27
2019-03-26T02:57:03.143Z,3.19
2019-03-26T02:59:31.992Z,3.26
2019-03-26T03:02:00.244Z,3.30
2019-03-26T03:04:29.087Z,3.26
2019-03-26T03:06:57.332Z,3.23
2019-03-26T03:09:25.609Z,3.25
2019-03-26T03:11:53.865Z,3.33
2019-03-26T03:14:22.888Z,3.30
2019-03-26T03:16:51.174Z,3.31
2019-03-26T03:19:19.413Z,3.30
2019-03-26T03:21:48.273Z,3.37
2019-03-26T03:24:16.868Z,3.23
2019-03-26T03:26:45.142Z,3.37
2019-03-26T03:29:13.719Z,3.34
2019-03-26T03:31:42.001Z,3.27
2019-03-26T03:34:10.827Z,3.29
2019-03-26T03:36:39.673Z,3.30
2019-03-26T03:39:08.294Z,3.28
2019-03-26T03:41:36.570Z,3.28
2019-03-26T03:44:04.812Z,3.26
2019-03-26T03:46:33.083Z,3.28
2019-03-26T03:49:01.338Z,3.19
2019-03-26T03:51:29.616Z,3.24
2019-03-26T03:53:58.631Z,3.19
2019-03-26T03:56:27.176Z,3.15
2019-03-26T03:58:55.422Z,3.18
2019-03-26T04:01:23.691Z,3.23
2019-03-26T04:03:51.949Z,3.26
2019-03-26T04:06:20.214Z,3.25
2019-03-26T04:08:48.538Z,3.25
2019-03-26T04:11:16.805Z,3.17
2019-03-26T04:13:45.059Z,3.17
2019-03-26T04:16:13.337Z,3.14
2019-03-26T04:18:41.580Z,3.23
2019-03-26T04:21:09.857Z,3.12
2019-03-26T04:23:38.109Z,3.14
2019-03-26T04:26:06.458Z,3.10
2019-03-26T04:28:35.278Z,3.07
2019-03-26T04:31:04.332Z,3.03
2019-03-26T04:33:32.569Z,3.03
2019-03-26T04:36:00.841Z,3.00
2019-03-26T04:38:29.668Z,3.07
2019-03-26T04:40:57.938Z,3.16
2019-03-26T04:43:26.759Z,3.14
2019-03-26T04:45:55.038Z,3.08
2019-03-26T04:48:23.296Z,3.06
2019-03-26T04:50:52.337Z,3.06
2019-03-26T04:53:21.363Z,2.99
2019-03-26T04:55:49.635Z,3.05
2019-03-26T04:58:18.163Z,3.00
2019-03-26T05:00:46.434Z,2.98
2019-03-26T05:03:14.690Z,3.02
2019-03-26T05:05:43.535Z,2.97
2019-03-26T05:08:11.852Z,2.91
2019-03-26T05:10:40.100Z,2.94
2019-03-26T05:13:08.381Z,2.90
2019-03-26T05:15:36.625Z,2.92
2019-03-26T05:18:04.964Z,2.88
2019-03-26T05:20:33.212Z,2.92
2019-03-26T05:23:02.263Z,2.94
2019-03-26T05:25:30.510Z,2.93
2019-03-26T05:27:58.779Z,2.89
2019-03-26T05:30:27.029Z,2.92
2019-03-26T05:32:56.072Z,2.95
2019-03-26T05:35:24.319Z,2.96
2019-03-26T05:37:52.597Z,3.03
2019-03-26T05:40:20.853Z,3.03
2019-03-26T05:42:49.409Z,2.92
2019-03-26T05:45:17.656Z,3.01
2019-03-26T05:47:45.936Z,2.99
2019-03-26T05:50:14.184Z,3.08
2019-03-26T05:52:43.231Z,3.08
2019-03-26T05:55:11.483Z,3.13
2019-03-26T05:57:39.755Z,3.06
2019-03-26T06:00:10.417Z,3.07
2019-03-26T06:02:38.694Z,3.14
2019-03-26T06:05:07.412Z,3.11
2019-03-26T06:07:36.793Z,3.14
2019-03-26T06:10:07.540Z,3.08
2019-03-26T06:12:35.812Z,3.12
2019-03-26T06:15:11.094Z,3.18
2019-03-26T06:17:39.364Z,3.18
2019-03-26T06:20:08.292Z,3.24
2019-03-26T06:22:36.567Z,3.26
2019-03-26T06:25:06.350Z,3.37
2019-03-26T06:27:34.626Z,3.32
2019-03-26T06:30:02.878Z,3.28
2019-03-26T06:32:31.822Z,3.28
2019-03-26T06:35:00.325Z,3.32
2019-03-26T06:37:29.394Z,3.34
2019-03-26T06:39:58.543Z,3.43
2019-03-26T06:42:26.894Z,3.47
2019-03-26T06:44:55.916Z,3.56
2019-03-26T06:47:24.189Z,3.57
2019-03-26T06:49:52.440Z,3.54
2019-03-26T06:52:21.483Z,3.60
2019-03-26T06:54:51.655Z,3.72
2019-03-26T06:57:19.732Z,3.78
2019-03-26T06:59:47.980Z,3.76
2019-03-26T07:02:17.491Z,3.88
2019-03-26T07:04:48.821Z,3.97
2019-03-26T07:07:30.533Z,3.90
2019-03-26T07:09:47.067Z,4.01
2019-03-26T07:12:15.340Z,4.10
2019-03-26T07:14:43.592Z,4.13
2019-03-26T07:17:11.866Z,4.15
2019-03-26T07:19:40.688Z,4.17
2019-03-26T07:22:08.943Z,4.24
2019-03-26T07:24:37.224Z,4.17
2019-03-26T07:27:05.473Z,4.25
2019-03-26T07:29:33.753Z,4.20
2019-03-26T07:32:02.779Z,4.37
2019-03-26T07:34:31.049Z,4.51
2019-03-26T07:37:00.085Z,4.44
2019-03-26T07:39:28.357Z,4.53
2019-03-26T07:41:56.628Z,4.42
2019-03-26T07:44:24.879Z,4.50
2019-03-26T07:46:53.152Z,4.68
2019-03-26T07:49:21.409Z,4.86
2019-03-26T07:51:50.448Z,4.72
2019-03-26T07:54:18.702Z,4.59
2019-03-26T07:56:47.052Z,4.53
2019-03-26T07:59:16.073Z,4.19
2019-03-26T08:01:44.818Z,4.19
2019-03-26T08:04:13.089Z,4.09
2019-03-26T08:06:41.336Z,4.22
2019-03-26T08:09:09.978Z,4.30
2019-03-26T08:11:38.209Z,4.37
2019-03-26T08:14:07.049Z,4.36
2019-03-26T08:16:36.422Z,4.45
2019-03-26T08:19:04.681Z,4.50
2019-03-26T08:21:33.504Z,4.64
2019-03-26T08:24:01.778Z,4.66
2019-03-26T08:26:30.029Z,4.56
2019-03-26T08:29:00.887Z,4.68
2019-03-26T08:31:28.304Z,4.66
2019-03-26T08:33:56.552Z,4.66
2019-03-26T08:36:25.596Z,4.76
2019-03-26T08:38:53.843Z,4.81
2019-03-26T08:41:22.121Z,4.79
2019-03-26T08:43:50.369Z,5.02
2019-03-26T08:46:18.649Z,5.04
2019-03-26T08:48:46.890Z,5.20
2019-03-26T08:51:15.848Z,5.42
2019-03-26T08:53:44.735Z,5.49
2019-03-26T08:56:13.024Z,5.69
2019-03-26T08:58:41.276Z,6.02
2019-03-26T09:01:10.522Z,6.31
2019-03-26T09:03:39.540Z,6.06
2019-03-26T09:06:07.816Z,6.32
2019-03-26T09:08:38.592Z,6.22
2019-03-26T09:11:06.796Z,6.05
2019-03-26T09:13:35.618Z,6.14
2019-03-26T09:16:03.896Z,6.24
2019-03-26T09:18:32.150Z,6.35
2019-03-26T09:21:00.421Z,6.36
2019-03-26T09:23:28.673Z,6.42
2019-03-26T09:25:56.952Z,6.23
2019-03-26T09:28:25.209Z,6.10
2019-03-26T09:30:53.481Z,5.81
2019-03-26T09:33:22.304Z,5.74
2019-03-26T09:35:50.644Z,5.71
2019-03-26T09:38:18.893Z,5.54
2019-03-26T09:40:47.739Z,5.42
2019-03-26T09:43:16.257Z,5.43
2019-03-26T09:45:44.533Z,5.45
2019-03-26T09:48:13.120Z,5.52
2019-03-26T09:50:41.393Z,5.55
2019-03-26T09:53:09.646Z,5.53
2019-03-26T09:55:38.372Z,5.71
2019-03-26T09:58:06.642Z,5.83
2019-03-26T10:00:34.998Z,5.80
2019-03-26T10:03:03.340Z,5.69
2019-03-26T10:05:31.588Z,5.63
2019-03-26T10:07:59.865Z,5.54
2019-03-26T10:10:28.112Z,5.44
2019-03-26T10:12:56.389Z,5.48
2019-03-26T10:15:24.645Z,5.66
2019-03-26T10:17:52.992Z,5.79
2019-03-26T10:20:21.240Z,5.92
2019-03-26T10:22:49.510Z,5.92
2019-03-26T10:25:17.755Z,6.06
2019-03-26T10:27:46.601Z,5.95
2019-03-26T10:30:18.113Z,5.98
2019-03-26T10:32:46.954Z,6.02
2019-03-26T10:35:15.216Z,6.04
2019-03-26T10:37:43.484Z,6.07
2019-03-26T10:40:14.991Z,5.98
2019-03-26T10:42:43.621Z,6.04
2019-03-26T10:45:11.868Z,6.14
2019-03-26T10:47:40.142Z,6.11
2019-03-26T10:50:08.774Z,6.14
2019-03-26T10:52:37.037Z,5.97
2019-03-26T10:55:06.271Z,6.10
2019-03-26T10:57:34.876Z,6.12
2019-03-26T11:00:05.066Z,6.25
2019-03-26T11:02:33.337Z,6.22
2019-03-26T11:05:01.585Z,6.03
2019-03-26T11:07:30.437Z,5.98
2019-03-26T11:09:59.262Z,5.96
2019-03-26T11:12:27.538Z,5.94
2019-03-26T11:14:55.783Z,5.84
2019-03-26T11:17:24.831Z,5.96
2019-03-26T11:19:53.082Z,5.87
2019-03-26T11:22:21.361Z,5.93
2019-03-26T11:24:49.612Z,5.88
2019-03-26T11:27:17.885Z,5.95
2019-03-26T11:29:46.140Z,5.79
2019-03-26T11:32:14.415Z,5.81
2019-03-26T11:34:42.661Z,5.90
2019-03-26T11:37:10.928Z,5.99
2019-03-26T11:39:39.176Z,5.86
2019-03-26T11:42:07.435Z,5.86
2019-03-26T11:44:35.709Z,5.81
2019-03-26T11:47:03.956Z,5.83
2019-03-26T11:49:32.239Z,5.72
2019-03-26T11:52:00.471Z,5.68
2019-03-26T11:54:29.213Z,5.70
2019-03-26T11:56:57.470Z,5.65
2019-03-26T11:59:25.744Z,5.60
2019-03-26T12:01:54.000Z,5.72
2019-03-26T12:04:22.265Z,5.87
2019-03-26T12:06:50.511Z,5.97
2019-03-26T12:09:18.779Z,6.01
2019-03-26T12:11:47.022Z,6.05
2019-03-26T12:14:16.631Z,6.06
2019-03-26T12:16:44.956Z,6.02
2019-03-26T12:19:13.230Z,5.93
2019-03-26T12:21:41.476Z,5.91
2019-03-26T12:24:10.524Z,5.91
2019-03-26T12:26:38.766Z,5.98
2019-03-26T12:29:07.036Z,5.77
2019-03-26T12:31:35.279Z,5.62
2019-03-26T12:34:04.024Z,5.55
2019-03-26T12:36:39.754Z,5.46
2019-03-26T12:39:04.313Z,5.45
2019-03-26T12:41:33.336Z,5.42
2019-03-26T12:44:01.610Z,5.34
2019-03-26T12:46:29.861Z,5.29
2019-03-26T12:48:58.472Z,5.21
2019-03-26T12:51:26.716Z,5.25
2019-03-26T12:53:54.988Z,5.20
2019-03-26T12:56:23.239Z,5.18
2019-03-26T12:58:51.517Z,5.11
2019-03-26T13:01:20.534Z,5.15
2019-03-26T13:03:49.371Z,5.22
2019-03-26T13:06:17.618Z,5.24
2019-03-26T13:08:45.892Z,5.25
2019-03-26T13:11:17.112Z,5.29
2019-03-26T13:13:44.746Z,5.25
2019-03-26T13:16:13.728Z,5.32
2019-03-26T13:18:42.006Z,5.37
2019-03-26T13:21:10.247Z,5.32
2019-03-26T13:23:38.520Z,5.21
2019-03-26T13:26:07.344Z,5.17
2019-03-26T13:28:35.612Z,5.09
2019-03-26T13:31:04.437Z,5.16
2019-03-26T13:33:32.700Z,5.11
2019-03-26T13:36:00.948Z,5.23
2019-03-26T13:38:29.195Z,5.30
2019-03-26T13:40:57.475Z,5.25
2019-03-26T13:43:25.726Z,5.24
2019-03-26T13:45:54.000Z,5.34
2019-03-26T13:48:22.259Z,5.41
2019-03-26T13:50:50.534Z,5.44
2019-03-26T13:53:18.776Z,5.39
2019-03-26T13:55:47.522Z,5.41
2019-03-26T13:58:16.099Z,5.48
2019-03-26T14:00:44.356Z,5.45
2019-03-26T14:03:12.946Z,5.47
2019-03-26T14:05:41.213Z,5.48
2019-03-26T14:08:09.801Z,5.42
2019-03-26T14:10:41.317Z,5.36
2019-03-26T14:13:08.826Z,5.41
2019-03-26T14:15:37.098Z,5.43
2019-03-26T14:18:05.343Z,5.21
2019-03-26T14:20:33.610Z,5.22
2019-03-26T14:23:01.866Z,5.19
2019-03-26T14:25:30.154Z,5.13
2019-03-26T14:27:58.389Z,5.28
2019-03-26T14:30:37.499Z,5.29
2019-03-26T14:33:06.174Z,5.37
2019-03-26T14:35:34.442Z,5.38
2019-03-26T14:38:02.689Z,5.35
2019-03-26T14:40:30.964Z,5.25
2019-03-26T14:42:59.207Z,5.31
2019-03-26T14:45:28.048Z,5.40
2019-03-26T14:47:56.296Z,5.47
2019-03-26T14:50:24.568Z,5.62
2019-03-26T14:52:52.819Z,5.53
2019-03-26T14:55:21.075Z,5.65
2019-03-26T14:57:49.329Z,5.67
2019-03-26T15:00:17.605Z,5.59
2019-03-26T15:02:45.848Z,5.50
2019-03-26T15:05:14.129Z,5.50
2019-03-26T15:07:42.372Z,5.48
2019-03-26T15:10:10.714Z,5.47
2019-03-26T15:12:38.963Z,5.51
2019-03-26T15:15:07.240Z,5.57
2019-03-26T15:17:35.479Z,5.66
2019-03-26T15:20:06.359Z,5.62
2019-03-26T15:22:34.604Z,5.58
2019-03-26T15:25:03.020Z,5.42
2019-03-26T15:27:31.539Z,5.50
2019-03-26T15:29:59.820Z,5.53
2019-03-26T15:32:28.065Z,5.45
2019-03-26T15:34:56.340Z,5.43
2019-03-26T15:37:24.588Z,5.54
2019-03-26T15:39:52.865Z,5.61
2019-03-26T15:42:21.157Z,5.52
2019-03-26T15:44:49.357Z,5.65
2019-03-26T15:47:17.628Z,5.62
2019-03-26T15:49:46.790Z,5.66
2019-03-26T15:52:15.641Z,5.58
2019-03-26T15:54:43.889Z,5.54
2019-03-26T15:57:12.170Z,5.51
2019-03-26T15:59:40.416Z,5.54
2019-03-26T16:02:08.698Z,5.44
2019-03-26T16:04:37.622Z,5.52
2019-03-26T16:07:05.901Z,5.46
2019-03-26T16:09:34.725Z,5.41
2019-03-26T16:12:02.998Z,5.45
2019-03-26T16:14:31.251Z,5.49
2019-03-26T16:17:00.094Z,5.44
2019-03-26T16:19:32.711Z,5.44
2019-03-26T16:21:58.347Z,5.44
2019-03-26T16:24:26.589Z,5.42
2019-03-26T16:26:55.537Z,5.41
2019-03-26T16:29:26.047Z,5.44
2019-03-26T16:31:54.356Z,5.34
2019-03-26T16:34:22.599Z,5.44
2019-03-26T16:36:59.248Z,5.49
2019-03-26T16:39:21.615Z,5.41
2019-03-26T16:41:49.893Z,5.43
2019-03-26T16:44:18.711Z,5.45
2019-03-26T16:46:46.988Z,5.41
2019-03-26T16:49:16.303Z,5.43
2019-03-26T16:51:44.576Z,5.40
2019-03-26T16:54:12.827Z,5.36
2019-03-26T16:56:41.107Z,5.46
2019-03-26T16:59:09.352Z,5.43
2019-03-26T17:01:37.623Z,5.40
2019-03-26T17:04:05.869Z,5.38
2019-03-26T17:06:34.143Z,5.33
2019-03-26T17:09:02.662Z,5.38
2019-03-26T17:11:30.939Z,5.39
2019-03-26T17:13:59.188Z,5.44
2019-03-26T17:16:27.465Z,5.44
2019-03-26T17:18:56.042Z,5.45
2019-03-26T17:21:24.326Z,5.44
2019-03-26T17:23:52.581Z,5.44
2019-03-26T17:26:20.858Z,5.34
2019-03-26T17:28:49.105Z,5.35
2019-03-26T17:31:17.381Z,5.38
2019-03-26T17:33:46.484Z,5.35
2019-03-26T17:36:15.110Z,5.31
2019-03-26T17:38:43.930Z,5.33
2019-03-26T17:41:12.773Z,5.34
2019-03-26T17:43:42.360Z,5.32
2019-03-26T17:46:10.633Z,5.33
2019-03-26T17:48:38.886Z,5.26
2019-03-26T17:51:07.168Z,5.27
2019-03-26T17:53:35.417Z,5.32
2019-03-26T17:56:03.693Z,5.26
2019-03-26T17:58:31.945Z,5.30
2019-03-26T18:01:00.221Z,5.30
2019-03-26T18:03:28.472Z,5.41
2019-03-26T18:05:56.752Z,5.32
2019-03-26T18:08:25.003Z,5.29
2019-03-26T18:10:53.254Z,5.27
2019-03-26T18:13:21.527Z,5.25
2019-03-26T18:15:49.800Z,5.17
2019-03-26T18:18:18.081Z,5.15
2019-03-26T18:20:46.330Z,5.30
2019-03-26T18:23:15.388Z,5.23
2019-03-26T18:25:43.637Z,5.19
2019-03-26T18:28:11.913Z,5.18
2019-03-26T18:30:40.166Z,5.18
2019-03-26T18:33:08.441Z,5.22
2019-03-26T18:35:36.687Z,5.30
2019-03-26T18:38:05.733Z,5.33
2019-03-26T18:40:34.558Z,5.24
2019-03-26T18:43:02.833Z,5.32
2019-03-26T18:45:31.080Z,5.30
2019-03-26T18:47:59.353Z,5.20
2019-03-26T18:50:27.604Z,5.25
2019-03-26T18:52:55.876Z,5.27
2019-03-26T18:55:25.326Z,5.33
2019-03-26T18:57:53.789Z,5.43
2019-03-26T19:00:34.384Z,5.41
2019-03-26T19:03:02.967Z,5.33
2019-03-26T19:05:31.179Z,5.22
2019-03-26T19:08:00.299Z,5.26
2019-03-26T19:10:33.943Z,5.24
2019-03-26T19:13:02.290Z,5.30
2019-03-26T19:15:30.539Z,5.35
2019-03-26T19:17:58.807Z,5.24
2019-03-26T19:20:27.069Z,5.22
2019-03-26T19:22:55.356Z,5.18
2019-03-26T19:25:23.610Z,5.28
2019-03-26T19:27:51.881Z,5.21
2019-03-26T19:30:20.130Z,5.15
2019-03-26T19:32:49.075Z,5.15
2019-03-26T19:35:17.894Z,5.12
2019-03-26T19:37:46.165Z,5.25
2019-03-26T19:40:14.417Z,5.18
2019-03-26T19:42:42.692Z,5.14
2019-03-26T19:45:11.718Z,5.17
2019-03-26T19:47:40.558Z,5.14
2019-03-26T19:50:08.810Z,5.17
2019-03-26T19:52:37.081Z,5.18
2019-03-26T19:55:07.071Z,5.11
2019-03-26T19:57:35.321Z,5.01
2019-03-26T20:00:04.666Z,5.06
2019-03-26T20:02:32.911Z,4.94
2019-03-26T20:05:01.453Z,4.89
2019-03-26T20:07:29.700Z,4.91
2019-03-26T20:09:57.976Z,4.92
2019-03-26T20:12:26.225Z,4.87
2019-03-26T20:14:54.500Z,4.92
2019-03-26T20:17:22.750Z,4.86
2019-03-26T20:19:52.469Z,4.90
2019-03-26T20:22:20.710Z,4.90
2019-03-26T20:24:48.985Z,4.87
2019-03-26T20:27:17.234Z,4.87
2019-03-26T20:29:45.508Z,4.88
2019-03-26T20:32:13.764Z,4.86
2019-03-26T20:34:42.044Z,4.87
2019-03-26T20:37:10.284Z,4.84
2019-03-26T20:39:38.566Z,4.81
2019-03-26T20:42:07.590Z,4.82
2019-03-26T20:44:35.866Z,4.79
2019-03-26T20:47:04.115Z,4.81
2019-03-26T20:49:32.865Z,4.76
2019-03-26T20:52:01.682Z,4.73
2019-03-26T20:54:30.623Z,4.76
2019-03-26T20:56:59.147Z,4.79
2019-03-26T20:59:27.415Z,4.74
2019-03-26T21:01:56.237Z,4.78
2019-03-26T21:04:24.509Z,4.77
2019-03-26T21:06:52.762Z,4.81
2019-03-26T21:09:21.032Z,4.76
2019-03-26T21:11:49.280Z,4.76
2019-03-26T21:14:17.552Z,4.69
2019-03-26T21:16:46.373Z,4.71
2019-03-26T21:19:15.416Z,4.73
2019-03-26T21:21:43.671Z,4.73
2019-03-26T21:24:11.939Z,4.69
2019-03-26T21:26:40.190Z,4.74
2019-03-26T21:29:08.465Z,4.69
2019-03-26T21:31:36.719Z,4.75
2019-03-26T21:34:04.989Z,4.71
2019-03-26T21:36:33.236Z,4.71
2019-03-26T21:39:02.182Z,4.74
2019-03-26T21:41:30.433Z,4.66
2019-03-26T21:44:04.131Z,4.60
2019-03-26T21:46:28.700Z,4.56
2019-03-26T21:48:57.728Z,4.43
2019-03-26T21:51:26.575Z,4.39
2019-03-26T21:53:55.385Z,4.45
2019-03-26T21:56:24.228Z,4.21
2019-03-26T21:58:52.484Z,4.34
2019-03-26T22:01:21.229Z,4.31
2019-03-26T22:03:49.480Z,4.29
2019-03-26T22:06:17.757Z,4.27
2019-03-26T22:08:46.008Z,4.36
2019-03-26T22:11:14.291Z,4.27
2019-03-26T22:13:42.547Z,4.23
2019-03-26T22:16:10.824Z,4.22
2019-03-26T22:18:39.085Z,4.19
2019-03-26T22:21:07.363Z,4.14
2019-03-26T22:23:35.618Z,4.27
2019-03-26T22:26:04.667Z,4.15
2019-03-26T22:28:32.927Z,4.15
2019-03-26T22:31:01.865Z,4.15
2019-03-26T22:33:30.121Z,4.09
2019-03-26T22:35:58.397Z,3.95
2019-03-26T22:38:26.653Z,3.80
2019-03-26T22:40:54.930Z,3.88
2019-03-26T22:43:23.185Z,3.92
2019-03-26T22:45:51.468Z,3.88
2019-03-26T22:48:19.731Z,4.07
2019-03-26T22:50:48.005Z,4.17
2019-03-26T22:53:16.257Z,4.17
2019-03-26T22:55:44.538Z,4.16
2019-03-26T22:58:13.361Z,4.24
2019-03-26T23:00:42.315Z,4.16
2019-03-26T23:03:10.641Z,4.13
2019-03-26T23:05:39.686Z,4.17
2019-03-26T23:08:07.948Z,4.15
2019-03-26T23:10:36.226Z,4.17
2019-03-26T23:13:05.048Z,4.18
2019-03-26T23:15:33.898Z,4.23
2019-03-26T23:18:02.721Z,4.11
2019-03-26T23:20:31.000Z,4.08
2019-03-26T23:22:59.260Z,4.06
2019-03-26T23:25:29.677Z,4.20
2019-03-26T23:27:57.925Z,4.23
2019-03-26T23:30:26.210Z,4.32
2019-03-26T23:32:54.457Z,4.30
2019-03-26T23:35:23.301Z,4.37
2019-03-26T23:37:51.559Z,4.22
2019-03-26T23:40:19.815Z,4.37
2019-03-26T23:42:48.097Z,4.28
2019-03-26T23:45:16.353Z,4.24
2019-03-26T23:47:44.632Z,4.25
2019-03-26T23:50:12.885Z,4.28
2019-03-26T23:52:41.166Z,4.20
2019-03-26T23:55:09.894Z,4.31
2019-03-26T23:57:38.180Z,4.25
